Portada
METAR-TAF:

METAR-TAF

Aeroports :

Burlington, Iowa, Estats Units d'Amèrica

latitud: 40-46-22N, longitud: 091-07-31W, altitud: 212 m

Observació

L'informe es va fer fa 32 minuts, a les 17:53 UTC
Vent 9 kt del Sud
Temperatura 31°C
Humitat 59%
Pressió 1024 hPa
Visibilitat: 16.1 km
Cel clar

METAR: KBRL 201753Z AUTO 17009KT 10SM CLR 31/22 A3025 RMK AO2 SLP237 T03060217 10306 20222 58010

Hora: 13:25 (18:25 UTC)

Pronòstic

L'informe es va fer fa 55 minuts, a les 17:30 UTC
Pronòstic vàlid del 20 a les 18 UTC al 21 a les 18 UTC
Vent 4 kt amb direcció variable
Visibilitat: 10 km
Núvols disperses a una alçada de 3000 ft
A partir de les 21 a les 1500 UTC
Vent 8 kt del Sud/Sud-Oest
Visibilitat: 10 km
Núvols disperses a una alçada de 25000 ft

TAF: KBRL 201730Z 2018/2118 VRB04KT P6SM SCT030 FM211500 21008KT P6SM SCT250

Observacions i pronòstics meteorològics de més de 4000 aeroports (METAR i TAF).

Les estacions disponibles són els punts grocs i vermells al mapa.

Posi el ratolí al punt desitjat per veure el nom de l'estació.

Feu clic per veure les observacions i els pronòstics meteorològics.

Per canviar el mapa: feu clic els botons verds amb una creu de color negre per apropar; al botó verd amb un guió per allunyar la imatge; o en les fletxes verdes per a mapes adjacents.


METAR-TAF: